ADDS METAR Data INFO
IDs: Format: Raw Decoded Include TAF

Data at: 1944 UTC 17 Feb 2018

KHDN 171856Z AUTO 17004KT 10SM CLR M02/M08 A3018 RMK AO2 SLP258 T10221083 FZRANO
KHDN 171756Z AUTO 00000KT 10SM CLR 01/M11 A3021 RMK AO2 SLP263 T00061106 10006 21094 50002 FZRANO
KHDN 171656Z AUTO 02005KT 10SM CLR M06/M12 A3021 RMK AO2 SLP279 T10561117 FZRANO
KHDN 171556Z AUTO 07004KT 10SM CLR M06/M13 A3021 RMK AO2 SLP280 T10611128 FZRANO
KHDN 171456Z AUTO 11005KT 10SM SCT055 M06/M13 A3020 RMK AO2 SLP275 T10611128 53014 FZRANO
KHDN 171356Z AUTO 08005KT 10SM OVC060 M07/M13 A3018 RMK AO2 SLP271 T10721133 FZRANO
KHDN 171256Z AUTO 00000KT 10SM SCT060 BKN070 M06/M12 A3017 RMK AO2 SLP265 T10611122 FZRANO
KHDN 171156Z AUTO 22003KT 10SM BKN055 M06/M12 A3015 RMK AO2 SLP255 T10561117 11050 21072 53017 FZRANO
KHDN 171056Z AUTO 32006KT 10SM BKN060 M06/M12 A3012 RMK AO2 SLP248 T10561117 FZRANO
KHDN 170956Z AUTO 32008KT 10SM OVC060 M06/M11 A3011 RMK AO2 SLP243 T10561106 FZRANO
KHDN 170856Z AUTO 28008KT 10SM OVC060 M05/M10 A3009 RMK AO2 SLP223 T10501100 53013 FZRANO
KHDN 170756Z AUTO 29007KT 10SM BKN065 M06/M10 A3006 RMK AO2 SLP227 T10611100 FZRANO
KHDN 170656Z AUTO 25003KT 10SM OVC065 M07/M10 A3006 RMK AO2 SLP226 T10671100 FZRANO
KHDN 170556Z AUTO 00000KT 10SM OVC065 M07/M10 A3004 RMK AO2 SLP226 T10721100 11056 21072 400111183 53006 FZRANO
KHDN 170456Z AUTO 19005KT 10SM OVC070 M07/M11 A3003 RMK AO2 SLP234 T10721111 FZRANO
KHDN 170356Z AUTO 00000KT 10SM OVC075 M06/M11 A3002 RMK AO2 SLP235 T10611111 FZRANO
KHDN 170256Z AUTO 23003KT 10SM SCT080 M06/M11 A3002 RMK AO2 SLP241 T10611111 57002 FZRANO
KHDN 170156Z AUTO 24003KT 10SM SCT080 M06/M11 A3003 RMK AO2 SLP243 T10611111 FZRANO
KHDN 170056Z AUTO 22004KT 10SM OVC090 M06/M11 A3002 RMK AO2 SLP246 T10611106 FZRANO
KHDN 162356Z AUTO 00000KT 10SM OVC090 M06/M10 A3003 RMK AO2 SLP244 T10611100 10011 21078 56022 FZRANO
KHDN 162256Z AUTO 00000KT 10SM OVC100 M07/M11 A3005 RMK AO2 SLP254 T10671106 FZRANO
KHDN 162156Z AUTO 17005KT 10SM SCT100 M07/M11 A3007 RMK AO2 SLP256 T10671106 FZRANO
KHDN 162056Z AUTO 13004KT 10SM CLR M03/M10 A3011 RMK AO2 SLP259 T10331100 58036 FZRANO
KHDN 161956Z AUTO 00000KT 10SM OVC100 M07/M11 A3017 RMK AO2 SLP287 T10671111 FZRANO
KHDN 161856Z AUTO 12006KT 10SM FEW100 M06/M12 A3022 RMK AO2 SLP299 T10611122 FZRANO
KHDN 161756Z AUTO VRB04KT 10SM CLR M08/M13 A3024 RMK AO2 SLP309 60000 T10781133 11078 21183 58012 FZRANO
KHDN 161656Z AUTO 13005KT 10SM CLR M12/M16 A3027 RMK AO2 SLP323 T11171161 FZRANO
KHDN 161556Z AUTO 12010KT 10SM CLR M14/M17 A3027 RMK AO2 SNE13 SLP324 P0000 T11391172 FZRANO
KHDN 161524Z AUTO 12009KT 10SM CLR M14/M17 A3028 RMK AO2 SNE13 P0000 FZRANO
KHDN 161509Z AUTO 10010KT 1 3/4SM -SN BR CLR M16/M17 A3028 RMK AO2 P0000 FZRANO
KHDN 161456Z AUTO 11010KT 9SM -SN CLR M16/M18 A3028 RMK AO2 SNB39 SLP331 P0000 60000 T11611183 58006 FZRANO
KHDN 161356Z AUTO 11011KT 10SM CLR M17/M19 A3028 RMK AO2 SLP335 T11671189 FZRANO
KHDN 161256Z AUTO 09004KT 10SM CLR M18/M20 A3030 RMK AO2 SLP343 T11781200 FZRANO
KHDN 161205Z AUTO 11005KT 10SM SCT004 M16/M18 A3030 RMK AO2 FZRANO
KHDN 161156Z AUTO 09005KT 10SM BKN004 M16/M18 A3030 RMK AO2 SNB36E46 CIG 002V006 SLP335 P0000 60000 70008 T11611183 11100 21178 56006 FZRANO
KHDN 161142Z AUTO 10009KT 9SM -SN FEW002 M17/M18 A3030 RMK AO2 SNB36 P0000 FZRANO
KHDN 161056Z AUTO 00000KT 5SM BR CLR M17/M19 A3031 RMK AO2 SLP337 T11721194 FZRANO
KHDN 160956Z AUTO 00000KT 10SM CLR M15/M16 A3032 RMK AO2 SLP333 T11501161 FZRANO
KHDN 160856Z AUTO 00000KT 10SM CLR M15/M17 A3032 RMK AO2 SLP329 T11501167 51004 FZRANO
KHDN 160756Z AUTO 00000KT 10SM CLR M13/M15 A3032 RMK AO2 SLP324 T11331150 FZRANO